PWSweather.com
Personal Weather Stations
Station Observations
KMAMEDFI2
Medfield, MA 02052

Medfield, MA 02052

Lat: 42.1900822, Lon: -71.3296889

Elevation: 138

Station Type: Rainwise WS MK-III

http://www.medfieldweather.com

High Low Average
Temperature 61.4°F16.3°C 47.4°F8.6°C 52.6°F11.4°C
Dew Point 55.4°F13.0°C 46.6°F8.1°C 50.9°F10.5°C
Winds 5.8 mph 9.3 kmh Calm Calm 2.0 mph SSE3.2 kmh SSE
Wind Gusts 15.0 mph24.1 kmh -- 3.0 mph4.8 kmh
Humidity 97% 77% 94%
Pressure 30.01 in1016.3 mb 29.83 in1010.2 mb -
Precipitation 0.45 in11.4 mm - -
Hour Temp Dew Point Humidity Winds Wind Gusts Pressure Precip Precip Rate Daily Precip Total
12:00 AM 52.7°F11.5°C 51.9°F11.1°C 97% 2.3 mph E3.7 kmh E 2.3 mph3.7 kmh 29.97 in1014.9 mb - 0.20 in5.1 mm 0.20 in5.1 mm
12:10 AM 52.4°F11.3°C 51.5°F10.8°C 97% 2.3 mph E3.7 kmh E 3.5 mph5.6 kmh 29.97 in1014.9 mb - 0.22 in5.6 mm 0.03 in0.8 mm
12:20 AM 52.2°F11.2°C 51.4°F10.8°C 97% 1.2 mph E1.9 kmh E 2.3 mph3.7 kmh 29.97 in1014.9 mb - 0.23 in5.8 mm 0.06 in1.5 mm
12:30 AM 52.0°F11.1°C 51.2°F10.7°C 97% 3.5 mph NW5.6 kmh NW 2.3 mph3.7 kmh 29.97 in1014.9 mb - 0.20 in5.1 mm 0.08 in2.0 mm
12:40 AM 51.7°F10.9°C 50.9°F10.5°C 97% 2.3 mph E3.7 kmh E 3.5 mph5.6 kmh 29.97 in1014.9 mb - 0.20 in5.1 mm 0.12 in3.0 mm
12:50 AM 51.4°F10.8°C 50.5°F10.3°C 97% 2.3 mph SE3.7 kmh SE 3.5 mph5.6 kmh 29.96 in1014.6 mb - 0.18 in4.6 mm 0.16 in4.1 mm
01:00 AM 51.1°F10.6°C 50.2°F10.1°C 97% 2.3 mph E3.7 kmh E 3.5 mph5.6 kmh 29.96 in1014.6 mb - 0.20 in5.1 mm 0.20 in5.1 mm
01:10 AM 50.8°F10.4°C 50.0°F10.0°C 97% 2.3 mph NE3.7 kmh NE 5.8 mph9.3 kmh 29.96 in1014.6 mb - 0.20 in5.1 mm 0.23 in5.8 mm
01:20 AM 50.7°F10.4°C 49.8°F9.9°C 97% 1.2 mph N1.9 kmh N 2.3 mph3.7 kmh 29.95 in1014.2 mb - 0.19 in4.8 mm 0.25 in6.4 mm
01:30 AM 50.1°F10.1°C 49.3°F9.6°C 97% 2.3 mph N3.7 kmh N 2.3 mph3.7 kmh 29.95 in1014.2 mb - 0.20 in5.1 mm 0.28 in7.1 mm
01:40 AM 49.5°F9.7°C 48.7°F9.3°C 97% 2.3 mph E3.7 kmh E 2.3 mph3.7 kmh 29.94 in1013.9 mb - 0.18 in4.6 mm 0.29 in7.4 mm
01:50 AM 49.2°F9.6°C 48.4°F9.1°C 97% 2.3 mph E3.7 kmh E 2.3 mph3.7 kmh 29.93 in1013.5 mb - 0.15 in3.8 mm 0.31 in7.9 mm
02:00 AM 48.7°F9.3°C 47.9°F8.8°C 97% 3.5 mph NW5.6 kmh NW 2.3 mph3.7 kmh 29.93 in1013.5 mb - 0.13 in3.3 mm 0.32 in8.1 mm
02:10 AM 48.4°F9.1°C 47.6°F8.7°C 97% 2.3 mph E3.7 kmh E 3.5 mph5.6 kmh 29.93 in1013.5 mb - 0.13 in3.3 mm 0.35 in8.9 mm
02:20 AM 48.2°F9.0°C 47.4°F8.6°C 97% 4.6 mph NE7.4 kmh NE 8.1 mph13.0 kmh 29.93 in1013.5 mb - 0.12 in3.0 mm 0.37 in9.4 mm
02:30 AM 47.9°F8.8°C 47.1°F8.4°C 97% 1.2 mph ESE1.9 kmh ESE 3.5 mph5.6 kmh 29.93 in1013.5 mb - 0.11 in2.8 mm 0.38 in9.7 mm
02:40 AM 47.8°F8.8°C 47.0°F8.3°C 97% 1.2 mph E1.9 kmh E 2.3 mph3.7 kmh 29.93 in1013.5 mb - 0.09 in2.3 mm 0.38 in9.7 mm
02:50 AM 47.6°F8.7°C 46.8°F8.2°C 97% 4.6 mph NE7.4 kmh NE 15.0 mph24.1 kmh 29.92 in1013.2 mb - 0.09 in2.3 mm 0.39 in9.9 mm
03:00 AM 47.5°F8.6°C 46.7°F8.2°C 97% 2.3 mph NNE3.7 kmh NNE 6.9 mph11.1 kmh 29.92 in1013.2 mb - 0.08 in2.0 mm 0.40 in10.2 mm
03:10 AM 47.4°F8.6°C 46.6°F8.1°C 97% 2.3 mph NE3.7 kmh NE 2.3 mph3.7 kmh 29.92 in1013.2 mb - 0.06 in1.5 mm 0.40 in10.2 mm
03:20 AM 47.5°F8.6°C 46.7°F8.2°C 97% 2.3 mph NW3.7 kmh NW 6.9 mph11.1 kmh 29.92 in1013.2 mb - 0.04 in1.0 mm 0.40 in10.2 mm
03:30 AM 47.5°F8.6°C 46.7°F8.2°C 97% 1.2 mph SE1.9 kmh SE 2.3 mph3.7 kmh 29.92 in1013.2 mb - 0.03 in0.8 mm 0.41 in10.4 mm
03:40 AM 47.7°F8.7°C 46.9°F8.3°C 97% 1.2 mph ESE1.9 kmh ESE 5.8 mph9.3 kmh 29.92 in1013.2 mb - 0.03 in0.8 mm 0.41 in10.4 mm
03:50 AM 47.8°F8.8°C 47.0°F8.3°C 97% 3.5 mph SE5.6 kmh SE 3.5 mph5.6 kmh 29.92 in1013.2 mb - 0.02 in0.5 mm 0.41 in10.4 mm
04:00 AM 47.8°F8.8°C 47.0°F8.3°C 97% 3.5 mph SE5.6 kmh SE 3.5 mph5.6 kmh 29.92 in1013.2 mb - 0.01 in0.3 mm 0.41 in10.4 mm
04:10 AM 47.9°F8.8°C 47.1°F8.4°C 97% 2.3 mph W3.7 kmh W 2.3 mph3.7 kmh 29.92 in1013.2 mb - 0.01 in0.3 mm 0.41 in10.4 mm
04:20 AM 48.0°F8.9°C 47.2°F8.4°C 97% 2.3 mph SE3.7 kmh SE 3.5 mph5.6 kmh 29.92 in1013.2 mb - 0.01 in0.3 mm 0.41 in10.4 mm
04:30 AM 48.1°F8.9°C 47.3°F8.5°C 97% 2.3 mph S3.7 kmh S 6.9 mph11.1 kmh 29.92 in1013.2 mb - 0.01 in0.3 mm 0.42 in10.7 mm
04:40 AM 48.3°F9.1°C 47.5°F8.6°C 97% Calm Calm 8.1 mph13.0 kmh 29.92 in1013.2 mb - 0.01 in0.3 mm 0.42 in10.7 mm
04:50 AM 48.4°F9.1°C 47.6°F8.7°C 97% 2.3 mph NE3.7 kmh NE 2.3 mph3.7 kmh 29.93 in1013.5 mb - 0.01 in0.3 mm 0.42 in10.7 mm
05:00 AM 48.6°F9.2°C 47.8°F8.8°C 97% 3.5 mph S5.6 kmh S 5.8 mph9.3 kmh 29.93 in1013.5 mb - 0.01 in0.3 mm 0.42 in10.7 mm
05:10 AM 48.8°F9.3°C 48.0°F8.9°C 97% 3.5 mph ENE5.6 kmh ENE 8.1 mph13.0 kmh 29.93 in1013.5 mb - 0.01 in0.3 mm 0.42 in10.7 mm
05:20 AM 48.8°F9.3°C 48.0°F8.9°C 97% 3.5 mph E5.6 kmh E 2.3 mph3.7 kmh 29.94 in1013.9 mb - 0.01 in0.3 mm 0.42 in10.7 mm
05:30 AM 48.9°F9.4°C 48.1°F8.9°C 97% 3.5 mph WSW5.6 kmh WSW 2.3 mph3.7 kmh 29.94 in1013.9 mb - 0.00 in0.0 mm 0.42 in10.7 mm
05:40 AM 49.0°F9.4°C 48.2°F9.0°C 97% 2.3 mph E3.7 kmh E 2.3 mph3.7 kmh 29.94 in1013.9 mb - 0.00 in0.0 mm 0.42 in10.7 mm
05:50 AM 49.1°F9.5°C 48.3°F9.1°C 97% Calm Calm 2.3 mph3.7 kmh 29.95 in1014.2 mb - 0.00 in0.0 mm 0.42 in10.7 mm
06:00 AM 49.2°F9.6°C 48.4°F9.1°C 97% 1.2 mph NNW1.9 kmh NNW 2.3 mph3.7 kmh 29.95 in1014.2 mb - 0.00 in0.0 mm 0.42 in10.7 mm
06:10 AM 49.3°F9.6°C 48.5°F9.2°C 97% 1.2 mph ESE1.9 kmh ESE 2.3 mph3.7 kmh 29.95 in1014.2 mb - 0.01 in0.3 mm 0.43 in10.9 mm
06:20 AM 49.5°F9.7°C 48.7°F9.3°C 97% 1.2 mph NNW1.9 kmh NNW 1.2 mph1.9 kmh 29.95 in1014.2 mb - 0.01 in0.3 mm 0.43 in10.9 mm
06:30 AM 49.6°F9.8°C 48.8°F9.3°C 97% Calm Calm -- 29.96 in1014.6 mb - 0.01 in0.3 mm 0.43 in10.9 mm
06:40 AM 49.7°F9.8°C 48.9°F9.4°C 97% 2.3 mph ENE3.7 kmh ENE 2.3 mph3.7 kmh 29.96 in1014.6 mb - 0.01 in0.3 mm 0.43 in10.9 mm
06:50 AM 49.9°F9.9°C 49.1°F9.5°C 97% 1.2 mph NW1.9 kmh NW 2.3 mph3.7 kmh 29.97 in1014.9 mb - 0.02 in0.5 mm 0.44 in11.2 mm
07:00 AM 50.0°F10.0°C 49.2°F9.6°C 97% Calm Calm -- 29.97 in1014.9 mb - 0.02 in0.5 mm 0.44 in11.2 mm
07:10 AM 50.2°F10.1°C 49.4°F9.7°C 97% Calm Calm 2.3 mph3.7 kmh 29.97 in1014.9 mb - 0.01 in0.3 mm 0.44 in11.2 mm
07:20 AM 50.4°F10.2°C 49.6°F9.8°C 97% 2.3 mph SSW3.7 kmh SSW 2.3 mph3.7 kmh 29.97 in1014.9 mb - 0.01 in0.3 mm 0.44 in11.2 mm
07:30 AM 50.7°F10.4°C 49.9°F9.9°C 97% 1.2 mph N1.9 kmh N 1.2 mph1.9 kmh 29.97 in1014.9 mb - 0.01 in0.3 mm 0.44 in11.2 mm
07:40 AM 50.9°F10.5°C 50.1°F10.1°C 97% 2.3 mph NE3.7 kmh NE 2.3 mph3.7 kmh 29.97 in1014.9 mb - 0.01 in0.3 mm 0.44 in11.2 mm
07:50 AM 51.1°F10.6°C 50.3°F10.2°C 97% 2.3 mph NW3.7 kmh NW 3.5 mph5.6 kmh 29.97 in1014.9 mb - 0.00 in0.0 mm 0.44 in11.2 mm
08:00 AM 51.1°F10.6°C 50.3°F10.2°C 97% 1.2 mph WSW1.9 kmh WSW 2.3 mph3.7 kmh 29.98 in1015.2 mb - 0.00 in0.0 mm 0.44 in11.2 mm
08:10 AM 51.1°F10.6°C 50.3°F10.2°C 97% 2.3 mph NW3.7 kmh NW 3.5 mph5.6 kmh 29.98 in1015.2 mb - 0.00 in0.0 mm 0.44 in11.2 mm
08:20 AM 51.1°F10.6°C 50.3°F10.2°C 97% 1.2 mph NW1.9 kmh NW 2.3 mph3.7 kmh 29.98 in1015.2 mb - 0.00 in0.0 mm 0.44 in11.2 mm
08:30 AM 51.2°F10.7°C 50.4°F10.2°C 97% Calm Calm -- 29.99 in1015.6 mb - 0.00 in0.0 mm 0.44 in11.2 mm
08:40 AM 51.1°F10.6°C 50.3°F10.2°C 97% 2.3 mph NW3.7 kmh NW 2.3 mph3.7 kmh 29.99 in1015.6 mb - 0.00 in0.0 mm 0.44 in11.2 mm
08:50 AM 51.1°F10.6°C 50.3°F10.2°C 97% 2.3 mph NE3.7 kmh NE 2.3 mph3.7 kmh 29.99 in1015.6 mb - 0.00 in0.0 mm 0.44 in11.2 mm
09:00 AM 51.1°F10.6°C 50.3°F10.2°C 97% 3.5 mph W5.6 kmh W 6.9 mph11.1 kmh 29.99 in1015.6 mb - 0.01 in0.3 mm 0.45 in11.4 mm
09:10 AM 51.2°F10.7°C 50.4°F10.2°C 97% 1.2 mph ENE1.9 kmh ENE 2.3 mph3.7 kmh 29.99 in1015.6 mb - 0.01 in0.3 mm 0.45 in11.4 mm
09:20 AM 51.1°F10.6°C 50.3°F10.2°C 97% 2.3 mph E3.7 kmh E 2.3 mph3.7 kmh 29.99 in1015.6 mb - 0.01 in0.3 mm 0.45 in11.4 mm
09:30 AM 50.9°F10.5°C 50.1°F10.1°C 97% 3.5 mph S5.6 kmh S 2.3 mph3.7 kmh 29.99 in1015.6 mb - 0.01 in0.3 mm 0.45 in11.4 mm
09:40 AM 51.4°F10.8°C 50.5°F10.3°C 97% 1.2 mph NNE1.9 kmh NNE 2.3 mph3.7 kmh 29.99 in1015.6 mb - 0.01 in0.3 mm 0.45 in11.4 mm
09:50 AM 51.3°F10.7°C 50.5°F10.3°C 97% 2.3 mph N3.7 kmh N 2.3 mph3.7 kmh 29.99 in1015.6 mb - 0.01 in0.3 mm 0.45 in11.4 mm
10:00 AM 51.7°F10.9°C 50.9°F10.5°C 97% 2.3 mph NW3.7 kmh NW 8.1 mph13.0 kmh 29.99 in1015.6 mb - 0.00 in0.0 mm 0.45 in11.4 mm
10:10 AM 51.9°F11.1°C 51.1°F10.6°C 97% 3.5 mph NW5.6 kmh NW 5.8 mph9.3 kmh 30.00 in1015.9 mb - 0.00 in0.0 mm 0.45 in11.4 mm
10:20 AM 51.9°F11.1°C 51.0°F10.6°C 97% 2.3 mph NW3.7 kmh NW 2.3 mph3.7 kmh 30.00 in1015.9 mb - 0.00 in0.0 mm 0.45 in11.4 mm
10:30 AM 52.2°F11.2°C 51.3°F10.7°C 97% 2.3 mph S3.7 kmh S 2.3 mph3.7 kmh 30.01 in1016.3 mb - 0.00 in0.0 mm 0.45 in11.4 mm
10:40 AM 52.3°F11.3°C 51.5°F10.8°C 97% 2.3 mph W3.7 kmh W 2.3 mph3.7 kmh 30.01 in1016.3 mb - 0.00 in0.0 mm 0.45 in11.4 mm
10:50 AM 52.1°F11.2°C 51.3°F10.7°C 97% 2.3 mph S3.7 kmh S 3.5 mph5.6 kmh 30.01 in1016.3 mb - 0.00 in0.0 mm 0.45 in11.4 mm
11:00 AM 52.0°F11.1°C 51.1°F10.6°C 97% 2.3 mph SE3.7 kmh SE 3.5 mph5.6 kmh 30.01 in1016.3 mb - 0.00 in0.0 mm 0.45 in11.4 mm
11:10 AM 52.1°F11.2°C 51.3°F10.7°C 97% 3.5 mph E5.6 kmh E 3.5 mph5.6 kmh 30.00 in1015.9 mb - 0.00 in0.0 mm 0.45 in11.4 mm
11:20 AM 52.2°F11.2°C 51.4°F10.8°C 97% 2.3 mph E3.7 kmh E 2.3 mph3.7 kmh 30.00 in1015.9 mb - 0.00 in0.0 mm 0.45 in11.4 mm
11:30 AM 52.4°F11.3°C 51.5°F10.8°C 97% 4.6 mph NE7.4 kmh NE 5.8 mph9.3 kmh 30.00 in1015.9 mb - 0.00 in0.0 mm 0.45 in11.4 mm
11:40 AM 52.2°F11.2°C 51.4°F10.8°C 97% 3.5 mph ESE5.6 kmh ESE 2.3 mph3.7 kmh 30.00 in1015.9 mb - 0.00 in0.0 mm 0.45 in11.4 mm
11:50 AM 53.0°F11.7°C 52.2°F11.2°C 97% 1.2 mph W1.9 kmh W 1.2 mph1.9 kmh 30.00 in1015.9 mb - 0.00 in0.0 mm 0.45 in11.4 mm
12:00 PM 54.8°F12.7°C 53.9°F12.2°C 97% 3.5 mph NNE5.6 kmh NNE 3.5 mph5.6 kmh 29.99 in1015.6 mb - 0.00 in0.0 mm 0.45 in11.4 mm
12:10 PM 55.2°F12.9°C 54.3°F12.4°C 97% 2.3 mph ENE3.7 kmh ENE 2.3 mph3.7 kmh 30.00 in1015.9 mb - 0.00 in0.0 mm 0.45 in11.4 mm
12:20 PM 55.3°F12.9°C 54.5°F12.5°C 97% 1.2 mph WSW1.9 kmh WSW 2.3 mph3.7 kmh 30.00 in1015.9 mb - 0.00 in0.0 mm 0.45 in11.4 mm
12:30 PM 55.4°F13.0°C 54.2°F12.3°C 96% 2.3 mph SE3.7 kmh SE 8.1 mph13.0 kmh 30.00 in1015.9 mb - 0.00 in0.0 mm 0.45 in11.4 mm
12:40 PM 55.7°F13.2°C 54.0°F12.2°C 94% 4.6 mph WSW7.4 kmh WSW 5.8 mph9.3 kmh 30.00 in1015.9 mb - 0.00 in0.0 mm 0.45 in11.4 mm
12:50 PM 55.9°F13.3°C 53.6°F12.0°C 92% 4.6 mph WSW7.4 kmh WSW 8.1 mph13.0 kmh 29.99 in1015.6 mb - 0.00 in0.0 mm 0.45 in11.4 mm
01:00 PM 55.4°F13.0°C 53.7°F12.1°C 94% 3.5 mph NW5.6 kmh NW 5.8 mph9.3 kmh 29.99 in1015.6 mb - 0.00 in0.0 mm 0.45 in11.4 mm
01:10 PM 54.9°F12.7°C 53.3°F11.8°C 94% 2.3 mph NE3.7 kmh NE 2.3 mph3.7 kmh 30.00 in1015.9 mb - 0.00 in0.0 mm 0.45 in11.4 mm
01:20 PM 55.8°F13.2°C 54.1°F12.3°C 94% 3.5 mph WSW5.6 kmh WSW 5.8 mph9.3 kmh 29.99 in1015.6 mb - 0.00 in0.0 mm 0.45 in11.4 mm
01:30 PM 57.0°F13.9°C 54.4°F12.4°C 91% 3.5 mph NW5.6 kmh NW 3.5 mph5.6 kmh 29.99 in1015.6 mb - 0.00 in0.0 mm 0.45 in11.4 mm
01:40 PM 58.1°F14.5°C 54.6°F12.6°C 88% 2.3 mph WNW3.7 kmh WNW 5.8 mph9.3 kmh 29.98 in1015.2 mb - 0.00 in0.0 mm 0.45 in11.4 mm
01:50 PM 58.9°F14.9°C 55.0°F12.8°C 87% 4.6 mph SW7.4 kmh SW 8.1 mph13.0 kmh 29.97 in1014.9 mb - 0.00 in0.0 mm 0.45 in11.4 mm
02:00 PM 60.2°F15.7°C 55.4°F13.0°C 84% 3.5 mph WSW5.6 kmh WSW 5.8 mph9.3 kmh 29.98 in1015.2 mb - 0.00 in0.0 mm 0.45 in11.4 mm
02:10 PM 60.3°F15.7°C 54.7°F12.6°C 82% 3.5 mph NW5.6 kmh NW 8.1 mph13.0 kmh 29.98 in1015.2 mb - 0.00 in0.0 mm 0.45 in11.4 mm
02:20 PM 60.3°F15.7°C 55.4°F13.0°C 84% 2.3 mph ENE3.7 kmh ENE 2.3 mph3.7 kmh 29.98 in1015.2 mb - 0.00 in0.0 mm 0.45 in11.4 mm
02:30 PM 60.3°F15.7°C 54.7°F12.6°C 82% 1.2 mph SSE1.9 kmh SSE 2.3 mph3.7 kmh 29.97 in1014.9 mb - 0.00 in0.0 mm 0.45 in11.4 mm
02:40 PM 60.6°F15.9°C 55.1°F12.8°C 82% 2.3 mph E3.7 kmh E 3.5 mph5.6 kmh 29.97 in1014.9 mb - 0.00 in0.0 mm 0.45 in11.4 mm
02:50 PM 60.9°F16.1°C 54.0°F12.2°C 78% 4.6 mph ENE7.4 kmh ENE 5.8 mph9.3 kmh 29.97 in1014.9 mb - 0.00 in0.0 mm 0.45 in11.4 mm
03:00 PM 60.9°F16.1°C 54.7°F12.6°C 80% 1.2 mph NW1.9 kmh NW 2.3 mph3.7 kmh 29.97 in1014.9 mb - 0.00 in0.0 mm 0.45 in11.4 mm
03:10 PM 60.5°F15.8°C 53.2°F11.8°C 77% 2.3 mph SSE3.7 kmh SSE 2.3 mph3.7 kmh 29.97 in1014.9 mb - 0.00 in0.0 mm 0.45 in11.4 mm
03:20 PM 59.9°F15.5°C 53.7°F12.1°C 80% 1.2 mph NNW1.9 kmh NNW 2.3 mph3.7 kmh 29.97 in1014.9 mb - 0.00 in0.0 mm 0.45 in11.4 mm
03:30 PM 59.9°F15.5°C 54.7°F12.6°C 83% 1.2 mph NE1.9 kmh NE 2.3 mph3.7 kmh 29.96 in1014.6 mb - 0.00 in0.0 mm 0.45 in11.4 mm
03:40 PM 60.7°F15.9°C 55.2°F12.9°C 82% 2.3 mph ENE3.7 kmh ENE 2.3 mph3.7 kmh 29.96 in1014.6 mb - 0.00 in0.0 mm 0.45 in11.4 mm
03:50 PM 61.4°F16.3°C 55.2°F12.9°C 80% 4.6 mph E7.4 kmh E 5.8 mph9.3 kmh 29.95 in1014.2 mb - 0.00 in0.0 mm 0.45 in11.4 mm
04:00 PM 60.6°F15.9°C 55.1°F12.8°C 82% 2.3 mph ESE3.7 kmh ESE 2.3 mph3.7 kmh 29.94 in1013.9 mb - 0.00 in0.0 mm 0.45 in11.4 mm
04:10 PM 59.6°F15.3°C 54.7°F12.6°C 84% 2.3 mph SE3.7 kmh SE 2.3 mph3.7 kmh 29.96 in1014.6 mb - 0.00 in0.0 mm 0.45 in11.4 mm
04:20 PM 59.1°F15.1°C 54.6°F12.6°C 85% 2.3 mph SE3.7 kmh SE 1.2 mph1.9 kmh 29.95 in1014.2 mb - 0.00 in0.0 mm 0.45 in11.4 mm
04:30 PM 59.1°F15.1°C 54.9°F12.7°C 86% 2.3 mph ESE3.7 kmh ESE 2.3 mph3.7 kmh 29.95 in1014.2 mb - 0.00 in0.0 mm 0.45 in11.4 mm
04:40 PM 59.9°F15.5°C 55.0°F12.8°C 84% 4.6 mph ESE7.4 kmh ESE 3.5 mph5.6 kmh 29.94 in1013.9 mb - 0.00 in0.0 mm 0.45 in11.4 mm
04:50 PM 59.2°F15.1°C 55.1°F12.8°C 86% 2.3 mph E3.7 kmh E 2.3 mph3.7 kmh 29.95 in1014.2 mb - 0.00 in0.0 mm 0.45 in11.4 mm
05:00 PM 59.7°F15.4°C 54.5°F12.5°C 83% 3.5 mph ESE5.6 kmh ESE 2.3 mph3.7 kmh 29.95 in1014.2 mb - 0.00 in0.0 mm 0.45 in11.4 mm
05:10 PM 58.6°F14.8°C 54.1°F12.3°C 85% 3.5 mph ESE5.6 kmh ESE 5.8 mph9.3 kmh 29.94 in1013.9 mb - 0.00 in0.0 mm 0.45 in11.4 mm
05:20 PM 58.3°F14.6°C 54.4°F12.4°C 87% 3.5 mph ESE5.6 kmh ESE 3.5 mph5.6 kmh 29.94 in1013.9 mb - 0.00 in0.0 mm 0.45 in11.4 mm
05:30 PM 58.2°F14.6°C 54.3°F12.4°C 87% 3.5 mph ESE5.6 kmh ESE 3.5 mph5.6 kmh 29.94 in1013.9 mb - 0.00 in0.0 mm 0.45 in11.4 mm
05:40 PM 58.3°F14.6°C 54.1°F12.3°C 86% 2.3 mph ESE3.7 kmh ESE 3.5 mph5.6 kmh 29.94 in1013.9 mb - 0.00 in0.0 mm 0.45 in11.4 mm
05:50 PM 57.8°F14.3°C 53.7°F12.1°C 86% 5.8 mph E9.3 kmh E 8.1 mph13.0 kmh 29.94 in1013.9 mb - 0.00 in0.0 mm 0.45 in11.4 mm
06:00 PM 57.4°F14.1°C 53.5°F11.9°C 87% 3.5 mph E5.6 kmh E 3.5 mph5.6 kmh 29.94 in1013.9 mb - 0.00 in0.0 mm 0.45 in11.4 mm
06:10 PM 56.9°F13.8°C 53.7°F12.1°C 89% 4.6 mph ESE7.4 kmh ESE 5.8 mph9.3 kmh 29.93 in1013.5 mb - 0.00 in0.0 mm 0.45 in11.4 mm
06:20 PM 55.7°F13.2°C 52.9°F11.6°C 90% 4.6 mph E7.4 kmh E 5.8 mph9.3 kmh 29.93 in1013.5 mb - 0.00 in0.0 mm 0.45 in11.4 mm
06:30 PM 54.9°F12.7°C 52.6°F11.4°C 92% 3.5 mph ESE5.6 kmh ESE 5.8 mph9.3 kmh 29.94 in1013.9 mb - 0.00 in0.0 mm 0.45 in11.4 mm
06:40 PM 54.5°F12.5°C 52.5°F11.4°C 93% 2.3 mph E3.7 kmh E 2.3 mph3.7 kmh 29.94 in1013.9 mb - 0.00 in0.0 mm 0.45 in11.4 mm
06:50 PM 54.1°F12.3°C 52.4°F11.3°C 94% 3.5 mph E5.6 kmh E 2.3 mph3.7 kmh 29.94 in1013.9 mb - 0.00 in0.0 mm 0.45 in11.4 mm
07:00 PM 53.9°F12.2°C 52.2°F11.2°C 94% 4.6 mph E7.4 kmh E 5.8 mph9.3 kmh 29.93 in1013.5 mb - 0.00 in0.0 mm 0.45 in11.4 mm
07:10 PM 53.3°F11.8°C 51.9°F11.1°C 95% 3.5 mph E5.6 kmh E 3.5 mph5.6 kmh 29.92 in1013.2 mb - 0.00 in0.0 mm 0.45 in11.4 mm
07:20 PM 52.7°F11.5°C 51.9°F11.1°C 97% 2.3 mph SE3.7 kmh SE 2.3 mph3.7 kmh 29.92 in1013.2 mb - 0.00 in0.0 mm 0.45 in11.4 mm
07:30 PM 52.3°F11.3°C 51.5°F10.8°C 97% 2.3 mph ESE3.7 kmh ESE 2.3 mph3.7 kmh 29.92 in1013.2 mb - 0.00 in0.0 mm 0.45 in11.4 mm
07:40 PM 52.3°F11.3°C 51.5°F10.8°C 97% 2.3 mph ESE3.7 kmh ESE 2.3 mph3.7 kmh 29.92 in1013.2 mb - 0.00 in0.0 mm 0.45 in11.4 mm
07:50 PM 52.2°F11.2°C 51.4°F10.8°C 97% 2.3 mph ESE3.7 kmh ESE 2.3 mph3.7 kmh 29.91 in1012.9 mb - 0.00 in0.0 mm 0.45 in11.4 mm
08:00 PM 52.2°F11.2°C 51.4°F10.8°C 97% 2.3 mph SSE3.7 kmh SSE 2.3 mph3.7 kmh 29.92 in1013.2 mb - 0.00 in0.0 mm 0.45 in11.4 mm
08:10 PM 51.9°F11.1°C 51.1°F10.6°C 97% 2.3 mph SSE3.7 kmh SSE 2.3 mph3.7 kmh 29.91 in1012.9 mb - 0.00 in0.0 mm 0.45 in11.4 mm
08:20 PM 51.9°F11.1°C 51.1°F10.6°C 97% 1.2 mph SSW1.9 kmh SSW 2.3 mph3.7 kmh 29.91 in1012.9 mb - 0.00 in0.0 mm 0.45 in11.4 mm
08:30 PM 51.7°F10.9°C 50.9°F10.5°C 97% 2.3 mph SE3.7 kmh SE 2.3 mph3.7 kmh 29.91 in1012.9 mb - 0.00 in0.0 mm 0.45 in11.4 mm
08:40 PM 51.7°F10.9°C 50.9°F10.5°C 97% 2.3 mph SE3.7 kmh SE 2.3 mph3.7 kmh 29.91 in1012.9 mb - 0.00 in0.0 mm 0.45 in11.4 mm
08:50 PM 51.8°F11.0°C 51.0°F10.6°C 97% 2.3 mph SE3.7 kmh SE 2.3 mph3.7 kmh 29.91 in1012.9 mb - 0.00 in0.0 mm 0.45 in11.4 mm
09:00 PM 51.9°F11.1°C 51.1°F10.6°C 97% 2.3 mph SSE3.7 kmh SSE 2.3 mph3.7 kmh 29.91 in1012.9 mb - 0.00 in0.0 mm 0.45 in11.4 mm
09:10 PM 52.2°F11.2°C 51.4°F10.8°C 97% 3.5 mph SSE5.6 kmh SSE 2.3 mph3.7 kmh 29.90 in1012.5 mb - 0.00 in0.0 mm 0.45 in11.4 mm
09:20 PM 51.9°F11.1°C 51.1°F10.6°C 97% 2.3 mph SSW3.7 kmh SSW 2.3 mph3.7 kmh 29.90 in1012.5 mb - 0.00 in0.0 mm 0.45 in11.4 mm
09:30 PM 51.8°F11.0°C 51.0°F10.6°C 97% 1.2 mph SE1.9 kmh SE 6.9 mph11.1 kmh 29.90 in1012.5 mb - 0.00 in0.0 mm 0.45 in11.4 mm
09:40 PM 51.7°F10.9°C 50.9°F10.5°C 97% 2.3 mph SE3.7 kmh SE 3.5 mph5.6 kmh 29.90 in1012.5 mb - 0.00 in0.0 mm 0.45 in11.4 mm
09:50 PM 51.3°F10.7°C 50.5°F10.3°C 97% 3.5 mph SSE5.6 kmh SSE 3.5 mph5.6 kmh 29.90 in1012.5 mb - 0.00 in0.0 mm 0.45 in11.4 mm
10:00 PM 51.0°F10.6°C 50.2°F10.1°C 97% 4.6 mph SSW7.4 kmh SSW 5.8 mph9.3 kmh 29.90 in1012.5 mb - 0.00 in0.0 mm 0.45 in11.4 mm
10:10 PM 50.9°F10.5°C 50.1°F10.1°C 97% 1.2 mph SSE1.9 kmh SSE 2.3 mph3.7 kmh 29.90 in1012.5 mb - 0.00 in0.0 mm 0.45 in11.4 mm
10:20 PM 50.6°F10.3°C 49.8°F9.9°C 97% 2.3 mph SSE3.7 kmh SSE 2.3 mph3.7 kmh 29.89 in1012.2 mb - 0.00 in0.0 mm 0.45 in11.4 mm
10:30 PM 50.5°F10.3°C 49.7°F9.8°C 97% 2.3 mph ESE3.7 kmh ESE 2.3 mph3.7 kmh 29.88 in1011.9 mb - 0.00 in0.0 mm 0.45 in11.4 mm
10:40 PM 50.3°F10.2°C 49.5°F9.7°C 97% 2.3 mph SE3.7 kmh SE 2.3 mph3.7 kmh 29.88 in1011.9 mb - 0.00 in0.0 mm 0.45 in11.4 mm
10:50 PM 50.0°F10.0°C 49.2°F9.6°C 97% 3.5 mph SSE5.6 kmh SSE 6.9 mph11.1 kmh 29.87 in1011.5 mb - 0.00 in0.0 mm 0.45 in11.4 mm
11:00 PM 49.9°F9.9°C 49.1°F9.5°C 97% 3.5 mph SSE5.6 kmh SSE 2.3 mph3.7 kmh 29.86 in1011.2 mb - 0.00 in0.0 mm 0.45 in11.4 mm
11:10 PM 49.8°F9.9°C 49.0°F9.4°C 97% 4.6 mph SE7.4 kmh SE 5.8 mph9.3 kmh 29.87 in1011.5 mb - 0.00 in0.0 mm 0.45 in11.4 mm
11:20 PM 49.7°F9.8°C 48.9°F9.4°C 97% 2.3 mph S3.7 kmh S 3.5 mph5.6 kmh 29.88 in1011.9 mb - 0.00 in0.0 mm 0.45 in11.4 mm
11:30 PM 49.6°F9.8°C 48.8°F9.3°C 97% 2.3 mph SSE3.7 kmh SSE 2.3 mph3.7 kmh 29.88 in1011.9 mb - 0.00 in0.0 mm 0.45 in11.4 mm
11:40 PM 49.4°F9.7°C 48.6°F9.2°C 97% 2.3 mph E3.7 kmh E 3.5 mph5.6 kmh 29.88 in1011.9 mb - 0.00 in0.0 mm 0.45 in11.4 mm
11:50 PM 49.3°F9.6°C 48.5°F9.2°C 97% 2.3 mph SSW3.7 kmh SSW 2.3 mph3.7 kmh 29.87 in1011.5 mb - 0.00 in0.0 mm 0.45 in11.4 mm